Time;durP1;ratioP1;P1;durP2;ratioP2;P2;SDS_P1;SDS_P2;PMS_P1;PMS_P2;Temp;Humidity;BMP_temperature;BMP_pressure;BME280_temperature;BME280_humidity;BME280_pressure;Samples;Min_cycle;Max_cycle;Signal;HPM_P1;HPM_P2
2021/08/28 00:00:56;;;;;;;8.50;4.90;;;12.80;99.90;;;;;;7410288;19;20041;-93
2021/08/28 00:03:26;;;;;;;9.25;4.78;;;12.70;99.90;;;;;;7424201;19;20007;-95
2021/08/28 00:05:56;;;;;;;9.38;5.20;;;12.60;99.90;;;;;;7421144;19;20018;-94
2021/08/28 00:08:28;;;;;;;9.68;5.05;;;12.60;99.90;;;;;;7425508;19;20049;-94
2021/08/28 00:10:58;;;;;;;8.30;5.05;;;12.60;99.90;;;;;;7416292;19;20037;-95
2021/08/28 00:13:28;;;;;;;13.55;5.63;;;12.60;99.90;;;;;;7404559;19;20007;-94
2021/08/28 00:15:58;;;;;;;11.20;5.28;;;12.70;99.90;;;;;;7406671;19;20018;-95
2021/08/28 00:18:27;;;;;;;11.27;5.50;;;12.80;99.90;;;;;;7401222;19;20437;-95
2021/08/28 00:20:57;;;;;;;10.10;5.47;;;12.70;99.90;;;;;;7410321;19;20014;-94
2021/08/28 00:23:29;;;;;;;12.40;4.85;;;12.80;99.90;;;;;;7407166;19;20007;-95
2021/08/28 00:25:58;;;;;;;10.05;5.15;;;12.80;99.90;;;;;;7403332;19;20056;-95
2021/08/28 00:28:28;;;;;;;12.50;5.43;;;12.70;99.90;;;;;;7407170;19;20007;-94
2021/08/28 00:30:58;;;;;;;12.35;5.40;;;12.70;99.90;;;;;;7401933;19;20366;-94
2021/08/28 00:33:27;;;;;;;10.38;5.07;;;12.80;99.90;;;;;;7402683;19;20014;-94
2021/08/28 00:35:57;;;;;;;9.00;5.28;;;12.80;99.90;;;;;;7403692;19;20014;-93
2021/08/28 00:38:31;;;;;;;12.18;5.13;;;12.80;99.90;;;;;;7410953;19;20009;-93
2021/08/28 00:41:01;;;;;;;8.10;5.00;;;12.80;99.90;;;;;;7429273;19;20003;-93
2021/08/28 00:43:30;;;;;;;9.48;4.78;;;12.80;99.90;;;;;;7415718;19;20018;-94
2021/08/28 00:46:00;;;;;;;12.02;5.15;;;12.80;99.90;;;;;;7421057;19;20016;-93
2021/08/28 00:48:30;;;;;;;8.95;5.07;;;12.80;99.90;;;;;;7406221;19;20022;-94
2021/08/28 00:51:03;;;;;;;10.27;5.07;;;12.80;99.90;;;;;;7399806;19;20333;-92
2021/08/28 00:53:37;;;;;;;14.02;4.97;;;12.80;99.90;;;;;;7403698;19;20014;-94
2021/08/28 00:56:06;;;;;;;12.02;5.10;;;12.80;99.90;;;;;;7404984;19;20022;-94
2021/08/28 00:58:36;;;;;;;12.65;5.38;;;12.70;99.90;;;;;;7407060;19;20021;-94
2021/08/28 01:01:11;;;;;;;12.38;5.22;;;12.70;99.90;;;;;;7409488;19;20010;-94
2021/08/28 01:03:43;;;;;;;9.43;4.93;;;12.70;99.90;;;;;;7426154;19;20011;-94
2021/08/28 01:06:17;;;;;;;12.27;5.32;;;12.60;99.90;;;;;;7429291;19;20078;-94
2021/08/28 01:09:07;;;;;;;8.55;4.43;;;12.60;99.90;;;;;;7424606;19;20019;-93
2021/08/28 01:12:09;;;;;;;10.55;4.75;;;12.50;99.90;;;;;;7414636;19;20010;-95
2021/08/28 01:14:49;;;;;;;7.75;4.40;;;12.40;99.90;;;;;;7399559;19;20018;-94
2021/08/28 01:17:22;;;;;;;7.60;4.82;;;12.30;99.90;;;;;;7399318;19;20014;-94
2021/08/28 01:20:05;;;;;;;10.93;4.88;;;12.20;99.90;;;;;;7399786;19;20417;-94
2021/08/28 01:23:09;;;;;;;13.45;4.97;;;12.20;99.90;;;;;;7398646;19;20003;-94
2021/08/28 01:26:05;;;;;;;10.77;4.57;;;12.50;99.90;;;;;;7399052;19;20329;-92
2021/08/28 01:28:50;;;;;;;11.90;5.28;;;12.60;99.90;;;;;;7401276;19;20003;-94
2021/08/28 01:31:23;;;;;;;10.50;4.50;;;12.60;99.90;;;;;;7401657;19;20456;-95
2021/08/28 01:33:59;;;;;;;10.82;5.15;;;12.70;99.90;;;;;;7398698;19;20014;-95
2021/08/28 01:36:29;;;;;;;12.68;4.22;;;12.70;99.90;;;;;;7402776;19;20015;-94
2021/08/28 01:39:07;;;;;;;10.00;4.35;;;12.70;99.90;;;;;;7417704;19;20014;-94
2021/08/28 01:41:37;;;;;;;13.02;5.50;;;12.70;99.90;;;;;;7426531;19;20043;-94
2021/08/28 01:44:11;;;;;;;13.25;5.07;;;12.70;99.90;;;;;;7416627;19;20011;-94
2021/08/28 01:46:44;;;;;;;9.60;4.03;;;12.80;99.90;;;;;;7407845;19;20054;-94
2021/08/28 01:49:19;;;;;;;10.68;4.55;;;12.80;99.90;;;;;;7415181;19;20313;-94
2021/08/28 01:51:50;;;;;;;9.80;4.07;;;12.80;99.90;;;;;;7410888;19;20476;-93
2021/08/28 01:54:28;;;;;;;9.30;4.07;;;12.80;99.90;;;;;;7413488;19;20021;-94
2021/08/28 01:56:58;;;;;;;12.80;3.67;;;12.80;99.90;;;;;;7428310;19;20010;-95
2021/08/28 01:59:28;;;;;;;11.18;4.95;;;12.90;99.90;;;;;;7422794;19;20318;-95
2021/08/28 02:02:27;;;;;;;9.52;3.83;;;12.90;99.90;;;;;;7413466;19;20014;-94
2021/08/28 02:05:00;;;;;;;8.98;4.18;;;12.90;99.90;;;;;;7414752;19;20022;-94
2021/08/28 02:07:41;;;;;;;9.27;4.00;;;13.00;99.90;;;;;;7411838;19;20581;-95
2021/08/28 02:10:13;;;;;;;;;;;13.00;99.90;;;;;;7416848;19;20014;-95
2021/08/28 02:12:54;;;;;;;5.78;3.30;;;13.00;99.90;;;;;;7425338;19;19927;-94
2021/08/28 02:15:32;;;;;;;10.02;4.50;;;13.00;99.90;;;;;;7407967;19;20010;-95
2021/08/28 02:18:13;;;;;;;10.95;5.35;;;13.00;99.90;;;;;;7407385;19;20097;-94
2021/08/28 02:21:02;;;;;;;6.18;3.58;;;13.00;99.90;;;;;;7405245;19;20385;-93
2021/08/28 02:23:40;;;;;;;7.53;4.07;;;13.00;99.90;;;;;;7408809;19;20022;-95
2021/08/28 02:26:38;;;;;;;12.32;4.25;;;13.00;99.90;;;;;;7404718;19;20006;-94
2021/08/28 02:29:12;;;;;;;10.32;4.25;;;13.00;99.90;;;;;;7409915;19;20006;-94
2021/08/28 02:31:46;;;;;;;10.48;3.70;;;13.00;99.90;;;;;;7408308;19;20302;-94
2021/08/28 02:34:22;;;;;;;11.23;4.38;;;13.00;99.90;;;;;;7404449;19;20011;-93
2021/08/28 02:37:00;;;;;;;8.65;4.32;;;13.00;99.90;;;;;;7405658;19;20013;-92
2021/08/28 02:39:32;;;;;;;7.97;3.78;;;12.90;99.90;;;;;;7407825;19;20014;-94
2021/08/28 02:42:05;;;;;;;9.00;4.57;;;12.90;99.90;;;;;;7413890;19;20010;-92
2021/08/28 02:44:35;;;;;;;11.45;3.85;;;12.90;99.90;;;;;;7421660;19;20018;-95
2021/08/28 02:47:06;;;;;;;7.47;4.05;;;12.90;99.90;;;;;;7405969;19;20066;-93
2021/08/28 02:49:41;;;;;;;13.77;4.72;;;12.90;99.90;;;;;;7404966;19;20031;-94
2021/08/28 02:52:24;;;;;;;10.25;4.15;;;12.90;99.90;;;;;;7408997;19;20007;-93
2021/08/28 02:55:01;;;;;;;9.48;4.78;;;12.90;99.90;;;;;;7405201;19;20018;-93
2021/08/28 02:57:32;;;;;;;6.40;3.63;;;12.90;99.90;;;;;;7406901;19;20042;-94
2021/08/28 03:00:02;;;;;;;8.00;4.45;;;12.90;99.90;;;;;;7412511;19;20013;-93
2021/08/28 03:02:35;;;;;;;15.07;4.30;;;12.90;99.90;;;;;;7412964;19;20010;-94
2021/08/28 03:05:12;;;;;;;7.28;4.15;;;13.00;99.90;;;;;;7403511;19;20006;-94
2021/08/28 03:07:42;;;;;;;9.85;4.35;;;13.00;99.90;;;;;;7410634;19;20307;-93
2021/08/28 03:10:15;;;;;;;8.77;3.97;;;13.00;99.90;;;;;;7410613;19;20074;-93
2021/08/28 03:12:46;;;;;;;8.13;4.40;;;12.90;99.90;;;;;;7407619;19;20010;-94
2021/08/28 03:15:16;;;;;;;6.18;3.90;;;12.90;99.90;;;;;;7409721;19;20437;-94
2021/08/28 03:18:09;;;;;;;7.45;4.10;;;13.00;99.90;;;;;;7403602;19;20011;-95
2021/08/28 03:20:46;;;;;;;6.07;3.65;;;13.00;99.90;;;;;;7402654;19;20014;-94
2021/08/28 03:23:21;;;;;;;6.32;4.13;;;13.00;99.90;;;;;;7402654;19;20077;-94
2021/08/28 03:25:52;;;;;;;6.72;4.05;;;13.00;99.90;;;;;;7407517;19;20019;-93
2021/08/28 03:28:25;;;;;;;7.95;4.05;;;13.00;99.90;;;;;;7401949;19;20305;-94
2021/08/28 03:30:55;;;;;;;7.45;4.13;;;13.00;99.90;;;;;;7400507;19;20014;-94
2021/08/28 03:33:25;;;;;;;10.82;4.03;;;13.10;99.90;;;;;;7401446;19;20014;-94
2021/08/28 03:36:05;;;;;;;6.55;3.70;;;13.10;99.90;;;;;;7401945;19;20014;-94
2021/08/28 03:38:36;;;;;;;8.13;4.30;;;13.00;99.90;;;;;;7402140;19;20036;-94
2021/08/28 03:41:12;;;;;;;7.75;4.20;;;13.10;99.90;;;;;;7401256;19;20011;-94
2021/08/28 03:43:44;;;;;;;7.03;3.53;;;13.20;99.90;;;;;;7412150;19;20003;-94
2021/08/28 03:46:14;;;;;;;6.35;3.92;;;13.10;99.90;;;;;;7410820;19;20338;-94
2021/08/28 03:48:44;;;;;;;6.35;3.75;;;13.10;99.90;;;;;;7403709;19;20105;-94
2021/08/28 03:51:16;;;;;;;7.78;4.78;;;13.00;99.90;;;;;;7410490;19;20021;-93
2021/08/28 03:53:46;;;;;;;7.82;4.10;;;13.10;99.90;;;;;;7407217;19;20025;-94
2021/08/28 03:56:15;;;;;;;11.38;4.50;;;13.10;99.90;;;;;;7412133;19;20014;-94
2021/08/28 03:58:45;;;;;;;6.85;4.22;;;13.20;99.90;;;;;;7421981;19;20002;-94
2021/08/28 04:01:14;;;;;;;8.02;4.25;;;13.20;99.90;;;;;;7427642;19;20014;-93
2021/08/28 04:03:46;;;;;;;5.97;4.20;;;13.20;99.90;;;;;;7429600;19;20071;-93
2021/08/28 04:06:18;;;;;;;6.43;4.28;;;13.20;99.90;;;;;;7422770;19;20013;-93
2021/08/28 04:08:48;;;;;;;5.28;3.72;;;13.20;99.90;;;;;;7410069;19;20011;-94
2021/08/28 04:11:18;;;;;;;6.32;4.32;;;13.20;99.90;;;;;;7407192;19;20018;-94
2021/08/28 04:13:48;;;;;;;6.95;4.65;;;13.20;99.90;;;;;;7407249;19;20007;-94
2021/08/28 04:16:21;;;;;;;10.63;4.38;;;13.20;99.90;;;;;;7421964;19;20018;-94
2021/08/28 04:18:55;;;;;;;7.60;3.90;;;13.20;99.90;;;;;;7412552;19;20547;-93
2021/08/28 04:21:46;;;;;;;8.50;4.20;;;13.20;99.90;;;;;;7402859;19;20003;-94
2021/08/28 04:24:35;;;;;;;5.28;3.63;;;13.20;99.90;;;;;;7400786;19;20285;-94
2021/08/28 04:27:23;;;;;;;6.30;4.07;;;13.20;99.90;;;;;;7406001;19;20014;-93
2021/08/28 04:29:53;;;;;;;8.05;4.22;;;13.30;99.90;;;;;;7403238;19;20015;-94
2021/08/28 04:32:27;;;;;;;7.38;4.30;;;13.30;99.90;;;;;;7407262;19;20068;-94
2021/08/28 04:34:59;;;;;;;7.32;4.72;;;13.20;99.90;;;;;;7401252;19;20014;-94
2021/08/28 04:37:34;;;;;;;9.57;6.22;;;13.30;99.90;;;;;;7421580;19;20006;-93
2021/08/28 04:40:04;;;;;;;7.47;5.15;;;13.40;99.90;;;;;;7429905;19;20046;-93
2021/08/28 04:42:33;;;;;;;6.90;5.00;;;13.30;99.90;;;;;;7419230;19;20015;-94
2021/08/28 04:45:07;;;;;;;8.98;5.70;;;13.30;99.90;;;;;;7429211;19;20022;-92
2021/08/28 04:47:56;;;;;;;8.55;5.97;;;13.40;99.90;;;;;;7420167;19;20044;-94
2021/08/28 04:50:29;;;;;;;9.75;6.05;;;13.40;99.90;;;;;;7425964;19;20021;-94
2021/08/28 04:53:05;;;;;;;8.63;6.97;;;13.40;99.90;;;;;;7405421;19;20006;-93
2021/08/28 04:55:37;;;;;;;7.20;6.05;;;13.40;99.90;;;;;;7402123;19;20037;-90
2021/08/28 04:58:07;;;;;;;10.15;7.00;;;13.40;99.90;;;;;;7399778;19;20011;-91
2021/08/28 05:00:42;;;;;;;10.35;6.95;;;13.40;99.90;;;;;;7402752;19;20011;-93
2021/08/28 05:03:49;;;;;;;12.95;6.75;;;13.40;99.90;;;;;;7402440;19;20011;-92
2021/08/28 05:06:18;;;;;;;8.55;6.53;;;13.40;99.90;;;;;;7403604;19;20007;-93
2021/08/28 05:08:50;;;;;;;9.63;6.60;;;13.40;99.90;;;;;;7407071;19;20011;-93
2021/08/28 05:11:20;;;;;;;10.30;7.03;;;13.40;99.90;;;;;;7403128;19;20011;-94
2021/08/28 05:13:49;;;;;;;9.98;7.03;;;13.50;99.90;;;;;;7407037;19;20015;-94
2021/08/28 05:16:19;;;;;;;8.00;6.35;;;13.50;99.90;;;;;;7406484;19;20425;-94
2021/08/28 05:18:48;;;;;;;13.98;6.07;;;13.50;99.90;;;;;;7407149;19;20106;-94
2021/08/28 05:21:22;;;;;;;12.40;6.50;;;13.50;99.90;;;;;;7404038;19;20048;-94
2021/08/28 05:24:14;;;;;;;10.40;6.90;;;13.50;99.90;;;;;;7410232;19;20013;-94
2021/08/28 05:26:49;;;;;;;11.95;7.55;;;13.60;99.90;;;;;;7432714;19;20031;-94
2021/08/28 05:29:18;;;;;;;11.98;7.90;;;13.60;99.90;;;;;;7420766;19;20010;-94
2021/08/28 05:31:50;;;;;;;14.45;7.20;;;13.60;99.90;;;;;;7411119;19;20428;-93
2021/08/28 05:34:20;;;;;;;9.90;7.20;;;13.70;99.90;;;;;;7406369;19;20055;-94
2021/08/28 05:37:10;;;;;;;13.18;8.10;;;13.70;99.90;;;;;;7410236;19;20074;-94
2021/08/28 05:40:19;;;;;;;12.85;7.55;;;13.70;99.90;;;;;;7409629;19;20015;-93
2021/08/28 05:42:49;;;;;;;12.85;7.70;;;13.80;99.90;;;;;;7409878;19;20097;-93
2021/08/28 05:45:19;;;;;;;11.98;7.82;;;13.70;99.90;;;;;;7412843;19;20002;-93
2021/08/28 05:47:50;;;;;;;11.98;7.90;;;13.70;99.90;;;;;;7424284;19;20038;-93
2021/08/28 05:50:22;;;;;;;15.82;8.15;;;13.70;99.90;;;;;;7419358;19;20010;-93
2021/08/28 05:52:57;;;;;;;18.73;8.68;;;13.70;99.90;;;;;;7414991;19;20394;-94
2021/08/28 05:55:31;;;;;;;11.55;7.97;;;13.70;99.90;;;;;;7416108;19;20006;-93
2021/08/28 05:58:02;;;;;;;14.52;8.32;;;13.70;99.90;;;;;;7416747;19;20091;-94
2021/08/28 06:00:35;;;;;;;13.13;8.07;;;13.70;99.90;;;;;;7412165;19;20025;-94
2021/08/28 06:03:09;;;;;;;13.95;7.90;;;13.70;99.90;;;;;;7405042;19;20014;-95
2021/08/28 06:05:39;;;;;;;13.60;8.23;;;13.70;99.90;;;;;;7408621;19;20313;-92
2021/08/28 06:08:34;;;;;;;14.25;8.00;;;13.70;99.90;;;;;;7414350;19;20007;-94
2021/08/28 06:11:26;;;;;;;13.98;7.95;;;13.70;99.90;;;;;;7408060;19;20007;-94
2021/08/28 06:14:31;;;;;;;10.95;7.63;;;13.70;99.90;;;;;;7407680;19;20060;-94
2021/08/28 06:17:01;;;;;;;11.77;7.70;;;13.70;99.90;;;;;;7408862;19;20026;-95
2021/08/28 06:19:33;;;;;;;11.65;7.60;;;13.70;99.90;;;;;;7423729;19;20018;-93
2021/08/28 06:22:03;;;;;;;10.75;7.07;;;13.70;99.90;;;;;;7414845;19;20078;-94
2021/08/28 06:24:32;;;;;;;11.65;8.25;;;13.80;99.90;;;;;;7406091;19;20011;-95
2021/08/28 06:27:10;;;;;;;10.75;7.07;;;13.80;99.90;;;;;;7409368;19;20107;-94
2021/08/28 06:29:40;;;;;;;11.77;7.25;;;13.80;99.90;;;;;;7414302;19;20014;-94
2021/08/28 06:32:11;;;;;;;11.02;7.18;;;13.70;99.90;;;;;;7404952;19;20018;-94
2021/08/28 06:34:40;;;;;;;11.50;7.25;;;13.70;99.90;;;;;;7407617;19;20103;-93
2021/08/28 06:37:10;;;;;;;11.15;6.65;;;13.80;99.90;;;;;;7404425;19;20018;-95
2021/08/28 06:39:58;;;;;;;12.68;7.45;;;13.80;99.90;;;;;;7409250;19;20363;-94
2021/08/28 06:42:53;;;;;;;11.30;7.28;;;13.80;99.90;;;;;;7407253;19;20018;-93
2021/08/28 06:45:43;;;;;;;12.15;7.95;;;13.90;99.90;;;;;;7407987;19;20015;-95
2021/08/28 06:48:51;;;;;;;10.00;7.67;;;14.00;99.90;;;;;;7424251;19;20011;-95
2021/08/28 06:51:39;;;;;;;12.10;7.90;;;14.00;99.90;;;;;;7420410;19;20276;-92
2021/08/28 06:54:27;;;;;;;9.25;6.88;;;14.00;99.90;;;;;;7407139;19;20017;-94
2021/08/28 06:57:16;;;;;;;8.98;6.55;;;14.00;99.90;;;;;;7401769;19;20018;-94
2021/08/28 07:00:11;;;;;;;10.52;6.82;;;14.00;99.90;;;;;;7403171;19;20010;-92
2021/08/28 07:03:07;;;;;;;9.88;5.93;;;14.00;99.90;;;;;;7409165;19;20006;-94
2021/08/28 07:05:38;;;;;;;7.45;5.90;;;14.10;99.90;;;;;;7404257;19;20007;-95
2021/08/28 07:08:27;;;;;;;8.85;6.38;;;14.20;99.90;;;;;;7410535;19;20421;-93
2021/08/28 07:10:56;;;;;;;7.93;5.63;;;14.20;99.90;;;;;;7406154;19;20022;-93
2021/08/28 07:13:26;;;;;;;6.35;4.53;;;14.30;99.90;;;;;;7406849;19;20023;-92
2021/08/28 07:15:58;;;;;;;10.05;5.35;;;14.40;99.90;;;;;;7409730;19;20011;-93
2021/08/28 07:18:28;;;;;;;6.78;4.35;;;14.50;99.90;;;;;;7409798;19;20011;-93
2021/08/28 07:20:57;;;;;;;7.03;3.83;;;14.60;99.90;;;;;;7403454;19;20014;-90
2021/08/28 07:23:27;;;;;;;4.90;3.70;;;14.60;99.90;;;;;;7406511;19;20018;-93
2021/08/28 07:26:02;;;;;;;5.13;4.20;;;14.80;99.90;;;;;;7404488;19;20013;-93
2021/08/28 07:28:34;;;;;;;5.18;3.67;;;14.80;99.90;;;;;;7412009;19;20003;-93
2021/08/28 07:31:15;;;;;;;7.82;5.07;;;14.90;99.90;;;;;;7413099;19;20010;-94
2021/08/28 07:33:55;;;;;;;8.75;4.78;;;15.00;99.90;;;;;;7407020;19;20269;-93
2021/08/28 07:36:28;;;;;;;10.27;6.00;;;15.10;99.90;;;;;;7408589;19;20010;-93
2021/08/28 07:38:58;;;;;;;9.18;5.80;;;15.00;99.90;;;;;;7409412;19;20508;-93
2021/08/28 07:41:31;;;;;;;12.60;7.68;;;15.00;99.90;;;;;;7417643;19;20006;-92
2021/08/28 07:44:01;;;;;;;12.35;9.18;;;14.90;99.90;;;;;;7420382;19;20010;-93
2021/08/28 07:46:35;;;;;;;16.77;9.32;;;14.80;99.90;;;;;;7414896;19;20022;-92
2021/08/28 07:49:20;;;;;;;16.77;10.32;;;14.80;99.90;;;;;;7409174;19;20442;-94
2021/08/28 07:51:51;;;;;;;11.82;9.27;;;14.70;99.90;;;;;;7423755;19;20010;-92
2021/08/28 07:54:23;;;;;;;15.77;11.38;;;14.60;99.90;;;;;;7407492;19;20003;-93
2021/08/28 07:56:56;;;;;;;14.57;9.45;;;14.60;99.90;;;;;;7410115;19;20031;-91
2021/08/28 07:59:25;;;;;;;12.80;9.20;;;14.70;99.90;;;;;;7427249;19;20019;-92
2021/08/28 08:01:57;;;;;;;11.02;8.50;;;14.80;99.90;;;;;;7420097;19;20073;-94
2021/08/28 08:04:28;;;;;;;11.60;8.32;;;15.00;99.90;;;;;;7403731;19;20021;-95
2021/08/28 08:07:02;;;;;;;8.85;7.07;;;15.40;99.90;;;;;;7404724;19;20017;-94
2021/08/28 08:10:07;;;;;;;9.27;6.95;;;15.60;99.90;;;;;;7408142;19;20011;-94
2021/08/28 08:12:58;;;;;;;9.13;6.00;;;15.80;99.90;;;;;;7414002;19;20010;-92
2021/08/28 08:15:53;;;;;;;7.78;6.47;;;15.90;99.90;;;;;;7402159;19;20025;-93
2021/08/28 08:18:48;;;;;;;9.70;6.47;;;16.20;99.90;;;;;;7404531;19;20011;-93
2021/08/28 08:21:40;;;;;;;7.05;5.65;;;16.50;99.90;;;;;;7406867;19;20018;-92
2021/08/28 08:25:00;;;;;;;7.97;5.93;;;17.00;99.90;;;;;;7418082;19;20011;-94
2021/08/28 08:28:06;;;;;;;8.75;4.80;;;17.30;99.90;;;;;;7406295;19;20387;-91
2021/08/28 08:30:58;;;;;;;7.38;4.90;;;17.30;99.90;;;;;;7402343;19;20003;-93
2021/08/28 08:33:33;;;;;;;7.65;5.07;;;17.10;99.90;;;;;;7402287;19;20447;-91
2021/08/28 08:36:12;;;;;;;9.23;5.28;;;17.00;99.90;;;;;;7403302;19;20002;-92
2021/08/28 08:38:42;;;;;;;11.40;5.53;;;17.00;99.90;;;;;;7403959;19;19998;-93
2021/08/28 08:41:13;;;;;;;12.18;5.45;;;17.10;99.90;;;;;;7405834;19;20011;-93
2021/08/28 08:43:51;;;;;;;7.20;5.32;;;16.80;99.90;;;;;;7405358;19;20019;-92
2021/08/28 08:46:24;;;;;;;10.30;5.28;;;16.90;99.90;;;;;;7405510;19;20070;-92
2021/08/28 08:48:55;;;;;;;8.07;5.20;;;16.70;99.90;;;;;;7401038;19;20450;-91
2021/08/28 08:51:32;;;;;;;8.77;5.25;;;17.00;99.90;;;;;;7403771;19;20019;-91
2021/08/28 08:54:02;;;;;;;10.07;5.50;;;17.20;99.90;;;;;;7411463;19;20346;-91
2021/08/28 08:56:32;;;;;;;9.32;5.22;;;17.30;99.90;;;;;;7404493;19;20066;-92
2021/08/28 08:59:04;;;;;;;8.00;5.10;;;17.20;99.90;;;;;;7402268;19;20017;-92
2021/08/28 09:01:36;;;;;;;8.25;5.07;;;17.00;99.90;;;;;;7403267;19;20007;-90
2021/08/28 09:04:25;;;;;;;10.07;5.47;;;16.80;99.90;;;;;;7415925;19;20050;-92
2021/08/28 09:06:57;;;;;;;7.63;5.70;;;16.50;99.90;;;;;;7415414;19;20029;-92
2021/08/28 09:09:26;;;;;;;12.82;6.13;;;16.20;99.90;;;;;;7406381;19;20075;-92
2021/08/28 09:12:01;;;;;;;11.65;6.20;;;16.10;99.90;;;;;;7400748;19;20051;-91
2021/08/28 09:14:33;;;;;;;11.27;6.90;;;15.90;99.90;;;;;;7403342;19;20136;-93
2021/08/28 09:17:16;;;;;;;10.18;6.10;;;15.80;99.90;;;;;;7398405;19;20047;-93
2021/08/28 09:19:47;;;;;;;11.85;6.05;;;15.80;99.90;;;;;;7398493;19;20024;-93
2021/08/28 09:22:33;;;;;;;11.68;6.20;;;16.10;99.90;;;;;;7397863;19;20022;-91
2021/08/28 09:25:05;;;;;;;9.00;5.13;;;16.50;99.90;;;;;;7401171;19;20003;-92
2021/08/28 09:27:40;;;;;;;6.78;4.65;;;16.60;99.90;;;;;;7401920;19;20018;-92
2021/08/28 09:30:27;;;;;;;11.25;6.13;;;16.50;99.90;;;;;;7402650;19;20084;-93
2021/08/28 09:33:00;;;;;;;8.50;5.38;;;16.40;99.90;;;;;;7398100;19;20022;-93
2021/08/28 09:35:32;;;;;;;10.57;5.63;;;16.20;99.90;;;;;;7399934;19;20044;-91
2021/08/28 09:38:05;;;;;;;10.60;6.05;;;16.10;99.90;;;;;;7401479;19;20271;-91
2021/08/28 09:40:36;;;;;;;10.73;5.60;;;16.10;99.90;;;;;;7405529;19;20009;-90
2021/08/28 09:43:10;;;;;;;9.05;5.32;;;16.20;99.90;;;;;;7404257;19;20055;-92
2021/08/28 09:45:40;;;;;;;13.35;6.35;;;16.30;99.90;;;;;;7401354;19;20006;-93
2021/08/28 09:48:11;;;;;;;10.02;6.63;;;16.30;99.90;;;;;;7398357;19;20018;-92
2021/08/28 09:50:44;;;;;;;12.20;6.65;;;16.20;99.90;;;;;;7399104;19;20029;-91
2021/08/28 09:53:21;;;;;;;18.48;6.18;;;16.20;99.90;;;;;;7404858;19;20022;-95
2021/08/28 09:55:57;;;;;;;11.07;5.90;;;16.10;99.90;;;;;;7408380;19;20010;-94
2021/08/28 09:58:31;;;;;;;12.15;5.40;;;16.10;99.90;;;;;;7407408;19;20014;-93
2021/08/28 10:01:02;;;;;;;9.02;5.78;;;16.10;99.90;;;;;;7414882;19;20002;-93
2021/08/28 10:03:32;;;;;;;7.80;5.35;;;16.40;99.90;;;;;;7414045;19;20044;-91
2021/08/28 10:06:03;;;;;;;11.43;4.90;;;16.70;99.90;;;;;;7411455;19;20415;-91
2021/08/28 10:08:36;;;;;;;8.50;4.30;;;17.20;99.90;;;;;;7412519;19;20007;-92
2021/08/28 10:11:07;;;;;;;7.55;3.80;;;18.00;99.90;;;;;;7411121;19;20058;-89
2021/08/28 10:13:36;;;;;;;7.72;3.85;;;18.70;99.90;;;;;;7413275;19;20468;-90
2021/08/28 10:16:07;;;;;;;6.63;2.80;;;19.00;99.90;;;;;;7420565;19;20002;-89
2021/08/28 10:18:38;;;;;;;6.78;2.90;;;19.20;99.90;;;;;;7427527;19;20047;-89
2021/08/28 10:21:13;;;;;;;6.60;2.92;;;19.20;99.90;;;;;;7413130;19;20010;-90
2021/08/28 10:23:52;;;;;;;9.35;3.15;;;19.00;99.90;;;;;;7410306;19;20026;-90
2021/08/28 10:26:22;;;;;;;4.68;2.60;;;18.60;99.90;;;;;;7413609;19;20424;-91
2021/08/28 10:28:59;;;;;;;7.57;2.33;;;18.50;99.90;;;;;;7410972;19;20014;-89
2021/08/28 10:31:29;;;;;;;3.85;2.22;;;18.60;99.90;;;;;;7413897;19;20369;-91
2021/08/28 10:34:02;;;;;;;3.05;1.90;;;19.10;99.90;;;;;;7410333;19;20014;-91
2021/08/28 10:36:35;;;;;;;6.25;2.00;;;19.30;99.90;;;;;;7410480;19;20006;-89
2021/08/28 10:39:10;;;;;;;8.18;1.73;;;19.90;99.90;;;;;;7409451;19;20453;-90
2021/08/28 10:41:40;;;;;;;3.65;1.60;;;20.50;99.90;;;;;;7408559;19;20042;-89
2021/08/28 10:44:11;;;;;;;3.97;2.03;;;20.80;99.90;;;;;;7409916;19;20048;-88
2021/08/28 10:46:45;;;;;;;5.15;1.88;;;21.40;99.90;;;;;;7411008;19;20010;-87
2021/08/28 10:49:24;;;;;;;3.40;1.58;;;22.10;98.70;;;;;;7411234;19;20362;-88
2021/08/28 10:51:58;;;;;;;4.13;1.95;;;22.10;97.80;;;;;;7406036;19;20015;-89
2021/08/28 10:54:33;;;;;;;6.15;1.73;;;22.10;97.60;;;;;;7408051;19;20006;-88
2021/08/28 10:57:06;;;;;;;3.30;1.80;;;22.40;96.80;;;;;;7411654;19;20007;-87
2021/08/28 10:59:39;;;;;;;3.05;1.50;;;23.10;95.10;;;;;;7414782;19;20022;-88
2021/08/28 11:02:13;;;;;;;3.38;1.52;;;23.90;93.70;;;;;;7410678;19;20007;-88
2021/08/28 11:04:45;;;;;;;3.88;1.65;;;24.30;92.30;;;;;;7413924;19;20015;-88
2021/08/28 11:07:26;;;;;;;3.47;2.17;;;24.20;90.40;;;;;;7412979;19;20157;-88
2021/08/28 11:10:15;;;;;;;3.35;1.80;;;23.30;91.10;;;;;;7413880;19;20017;-89
2021/08/28 11:12:56;;;;;;;6.72;1.85;;;22.60;92.10;;;;;;7414490;19;20062;-84
2021/08/28 11:15:46;;;;;;;2.80;1.53;;;22.20;93.20;;;;;;7407289;19;20683;-85
2021/08/28 11:18:18;;;;;;;5.22;2.03;;;22.60;92.70;;;;;;7410569;19;20259;-89
2021/08/28 11:20:50;;;;;;;3.58;1.70;;;23.20;91.70;;;;;;7407616;19;20003;-88
2021/08/28 11:23:21;;;;;;;3.15;1.60;;;23.50;90.70;;;;;;7409955;19;20014;-87
2021/08/28 11:26:00;;;;;;;2.58;1.33;;;23.30;90.30;;;;;;7406781;19;20081;-86
2021/08/28 11:28:40;;;;;;;2.97;1.40;;;23.70;89.90;;;;;;7410418;19;20015;-86
2021/08/28 11:31:10;;;;;;;5.47;1.60;;;23.30;89.30;;;;;;7409958;19;20018;-87
2021/08/28 11:33:41;;;;;;;3.28;2.08;;;22.90;90.50;;;;;;7407928;19;20011;-88
2021/08/28 11:36:23;;;;;;;2.78;1.60;;;22.50;91.30;;;;;;7411656;19;20089;-86
2021/08/28 11:38:54;;;;;;;3.05;1.60;;;22.20;91.10;;;;;;7414238;19;20092;-88
2021/08/28 11:41:29;;;;;;;2.53;1.42;;;22.30;90.20;;;;;;7416668;19;20015;-87
2021/08/28 11:43:59;;;;;;;4.25;1.50;;;22.30;90.30;;;;;;7411990;19;20017;-89
2021/08/28 11:46:30;;;;;;;2.92;1.65;;;22.50;90.10;;;;;;7407856;19;20022;-89
2021/08/28 11:49:02;;;;;;;3.20;1.20;;;22.40;89.00;;;;;;7410131;19;20038;-88
2021/08/28 11:51:35;;;;;;;2.95;1.05;;;22.70;86.90;;;;;;7410728;19;20552;-87
2021/08/28 11:54:10;;;;;;;2.03;1.02;;;23.90;83.60;;;;;;7407201;19;20086;-86
2021/08/28 11:56:59;;;;;;;2.13;0.90;;;25.10;79.50;;;;;;7412913;19;20027;-86
2021/08/28 11:59:41;;;;;;;2.85;1.00;;;26.30;76.10;;;;;;7410313;19;20082;-88
2021/08/28 12:02:15;;;;;;;3.17;1.05;;;26.80;72.10;;;;;;7412813;19;20014;-86
2021/08/28 12:04:45;;;;;;;3.58;1.27;;;26.90;70.70;;;;;;7412977;19;20074;-87
2021/08/28 12:07:15;;;;;;;4.40;1.40;;;26.00;72.10;;;;;;7410999;19;20025;-87
2021/08/28 12:09:44;;;;;;;2.42;0.95;;;25.60;73.30;;;;;;7407475;19;20066;-86
2021/08/28 12:12:17;;;;;;;1.98;0.90;;;26.40;71.60;;;;;;7411464;19;20014;-88
2021/08/28 12:14:47;;;;;;;3.65;0.73;;;28.00;69.10;;;;;;7409863;19;20015;-87
2021/08/28 12:17:16;;;;;;;4.60;1.02;;;29.40;65.40;;;;;;7409146;19;20006;-88
2021/08/28 12:19:46;;;;;;;1.73;0.93;;;29.90;62.00;;;;;;7410971;19;20313;-87
2021/08/28 12:22:19;;;;;;;3.70;0.90;;;30.70;59.30;;;;;;7406121;19;20014;-86
2021/08/28 12:24:48;;;;;;;2.15;1.42;;;32.00;55.90;;;;;;7410064;19;20026;-86
2021/08/28 12:27:20;;;;;;;0.88;0.60;;;31.20;54.50;;;;;;7410858;19;20021;-85
2021/08/28 12:29:52;;;;;;;1.20;0.63;;;30.80;55.30;;;;;;7414051;19;20011;-85
2021/08/28 12:32:24;;;;;;;2.20;0.85;;;29.90;55.30;;;;;;7417149;19;20110;-85
2021/08/28 12:34:55;;;;;;;0.98;0.68;;;29.30;56.80;;;;;;7408899;19;20022;-86
2021/08/28 12:37:29;;;;;;;2.28;0.70;;;29.90;56.30;;;;;;7402925;19;20014;-86
2021/08/28 12:40:02;;;;;;;1.23;0.70;;;31.10;54.40;;;;;;7408826;19;20056;-85
2021/08/28 12:42:38;;;;;;;2.33;0.80;;;31.90;53.00;;;;;;7416333;19;20007;-85
2021/08/28 12:45:12;;;;;;;2.17;0.90;;;32.80;51.90;;;;;;7424816;19;20035;-86
2021/08/28 12:47:43;;;;;;;1.50;0.65;;;33.00;49.60;;;;;;7424520;19;20010;-85
2021/08/28 12:50:18;;;;;;;1.90;0.82;;;32.90;49.20;;;;;;7418515;19;20413;-88
2021/08/28 12:52:48;;;;;;;0.85;0.63;;;33.20;50.20;;;;;;7406701;19;20010;-87
2021/08/28 12:55:26;;;;;;;1.73;0.77;;;33.70;48.80;;;;;;7405414;19;20007;-85
2021/08/28 12:58:00;;;;;;;;;;;34.50;47.50;;;;;;7412702;19;20022;-86
2021/08/28 13:00:33;;;;;;;3.63;0.80;;;35.20;46.10;;;;;;7405238;19;19930;-86
2021/08/28 13:03:26;;;;;;;1.75;0.70;;;35.50;45.20;;;;;;7404263;19;20315;-86
2021/08/28 13:05:55;;;;;;;1.73;0.77;;;35.40;44.60;;;;;;7412474;19;20074;-86
2021/08/28 13:08:33;;;;;;;2.83;1.17;;;35.40;45.20;;;;;;7420785;19;20011;-86
2021/08/28 13:11:24;;;;;;;2.70;1.30;;;35.20;45.30;;;;;;7405685;19;20052;-87
2021/08/28 13:14:07;;;;;;;1.98;0.90;;;35.30;44.70;;;;;;7405501;19;20408;-87
2021/08/28 13:16:37;;;;;;;1.20;0.70;;;36.10;44.20;;;;;;7403934;19;20306;-87
2021/08/28 13:19:12;;;;;;;1.48;0.80;;;35.90;43.30;;;;;;7403224;19;20011;-86
2021/08/28 13:21:42;;;;;;;0.93;0.63;;;36.40;42.30;;;;;;7402663;19;20096;-86
2021/08/28 13:24:16;;;;;;;1.77;0.90;;;35.80;41.70;;;;;;7403674;19;20039;-86
2021/08/28 13:26:58;;;;;;;1.63;0.80;;;34.40;43.70;;;;;;7403261;19;20022;-86